Terminal Aerodrome Forecast
Issued by NWS

Home | Current Version | Previous Version | Text Only | Print | Product List | Glossary On
Versions: 1 2 3 4 5 6 7 8 9 10 11 12 13
000
FTUS45 KRIW 011729
TAFBPI
TAF
KBPI 011729Z 0118/0218 15009KT P6SM SCT100
     FM011830 25014G24KT P6SM SCT090
     FM012000 25014G24KT P6SM VCTS SCT090CB BKN120
     FM020100 31008KT P6SM SCT100
     FM020700 VRB05KT P6SM SCT100=

USA.gov is the U.S. government's official web portal to all federal, state and local government web resources and services.